Time;durP1;ratioP1;P1;durP2;ratioP2;P2;SDS_P1;SDS_P2;PMS_P1;PMS_P2;Temp;Humidity;BMP_temperature;BMP_pressure;BME280_temperature;BME280_humidity;BME280_pressure;Samples;Min_cycle;Max_cycle;Signal;HPM_P1;HPM_P2
2022/11/07 00:04:34;;;;;;;7.60;3.88;;;;;;;8.97;100.00;100221.75;20886326;28;20053;-69
2022/11/07 00:14:35;;;;;;;7.38;3.65;;;;;;;9.09;100.00;100240.78;20888851;28;20049;-67
2022/11/07 00:24:36;;;;;;;6.40;3.60;;;;;;;9.05;100.00;100244.28;20888090;28;20448;-67
2022/11/07 00:34:38;;;;;;;5.90;3.22;;;;;;;9.09;100.00;100239.03;20887340;28;20049;-67
2022/11/07 00:44:39;;;;;;;6.15;3.65;;;;;;;9.11;100.00;100241.63;20887317;28;20044;-68
2022/11/07 00:54:41;;;;;;;9.52;4.45;;;;;;;9.15;100.00;100251.13;20888010;28;20057;-70
2022/11/07 01:15:03;;;;;;;7.68;3.75;;;;;;;9.31;100.00;100273.59;20893448;28;20049;-69
2022/11/07 01:25:05;;;;;;;7.03;3.70;;;;;;;9.34;100.00;100268.34;20902178;28;20110;-67
2022/11/07 01:35:07;;;;;;;9.27;3.58;;;;;;;9.40;100.00;100273.47;20899658;28;20370;-67
2022/11/07 01:45:08;;;;;;;5.88;3.30;;;;;;;9.46;100.00;100268.16;20899578;28;20052;-67
2022/11/07 01:55:09;;;;;;;6.65;2.97;;;;;;;9.51;100.00;100261.13;20900748;28;20045;-67
2022/11/07 02:05:11;;;;;;;6.65;2.55;;;;;;;9.60;100.00;100267.97;20897141;28;20041;-66
2022/11/07 02:15:12;;;;;;;5.47;2.58;;;;;;;9.70;100.00;100255.63;20897458;28;20382;-66
2022/11/07 02:25:14;;;;;;;5.45;2.47;;;;;;;9.80;100.00;100262.47;20896641;28;20052;-68
2022/11/07 02:35:15;;;;;;;4.35;2.20;;;;;;;9.86;100.00;100251.91;20895793;28;20460;-68
2022/11/07 02:45:16;;;;;;;7.28;2.20;;;;;;;9.90;100.00;100253.56;20895329;28;20455;-68
2022/11/07 02:55:18;;;;;;;6.55;2.30;;;;;;;9.80;100.00;100262.47;20894326;28;20051;-68
2022/11/07 03:05:19;;;;;;;5.78;2.67;;;;;;;9.81;100.00;100255.47;20893639;28;20095;-67
2022/11/07 03:15:20;;;;;;;7.60;2.40;;;;;;;9.86;100.00;100259.75;20893458;28;20508;-68
2022/11/07 03:25:22;;;;;;;6.43;2.45;;;;;;;9.90;100.00;100268.41;20891732;28;20103;-67
2022/11/07 03:35:23;;;;;;;4.15;2.20;;;;;;;9.93;100.00;100268.38;20876022;28;20079;-67
2022/11/07 03:45:24;;;;;;;4.82;2.33;;;;;;;9.91;100.00;100276.22;20889355;28;20040;-67
2022/11/07 03:55:26;;;;;;;6.50;2.88;;;;;;;9.89;100.00;100287.63;20890283;28;20041;-66
2022/11/07 04:05:27;;;;;;;5.88;2.40;;;;;;;10.00;100.00;100290.91;20888925;28;20052;-66
2022/11/07 04:36:08;;;;;;;4.85;2.42;;;;;;;9.98;100.00;100318.88;20887098;28;20508;-67
2022/11/07 04:46:10;;;;;;;7.25;2.45;;;;;;;9.98;100.00;100324.97;20886972;28;20049;-68
2022/11/07 04:56:11;;;;;;;6.50;2.38;;;;;;;9.98;100.00;100313.63;20903717;28;20049;-67
2022/11/07 05:06:13;;;;;;;5.03;2.53;;;;;;;9.98;100.00;100311.88;20902744;28;20087;-67
2022/11/07 05:16:15;;;;;;;9.40;2.60;;;;;;;10.00;100.00;100317.94;20902444;28;20049;-67
2022/11/07 05:26:17;;;;;;;6.40;2.50;;;;;;;9.98;100.00;100309.25;20901173;28;20497;-67
2022/11/07 05:36:18;;;;;;;8.57;2.63;;;;;;;9.98;100.00;100319.72;20881707;28;20045;-67
2022/11/07 05:46:20;;;;;;;6.47;2.60;;;;;;;9.98;100.00;100313.63;20899306;28;20103;-67
2022/11/07 05:56:21;;;;;;;9.35;3.50;;;;;;;10.09;100.00;100327.41;20898605;28;20095;-67
2022/11/07 06:06:23;;;;;;;7.70;2.75;;;;;;;9.99;100.00;100337.13;20896093;28;20498;-67
2022/11/07 06:16:24;;;;;;;6.85;2.63;;;;;;;10.05;100.00;100351.03;20897389;28;20044;-67
2022/11/07 06:26:25;;;;;;;8.35;2.45;;;;;;;10.03;100.00;100354.53;20896705;28;20045;-66
2022/11/07 06:36:27;;;;;;;8.18;2.67;;;;;;;10.14;100.00;100350.88;20894931;28;20103;-66
2022/11/07 06:46:28;;;;;;;6.22;2.58;;;;;;;10.26;100.00;100371.69;20893850;28;20056;-66
2022/11/07 06:56:30;;;;;;;9.00;3.90;;;;;;;10.35;100.00;100376.78;20893419;28;20567;-66
2022/11/07 07:06:31;;;;;;;11.32;3.20;;;;;;;10.44;100.00;100386.22;20891853;28;20581;-66
2022/11/07 07:16:33;;;;;;;14.70;4.40;;;;;;;10.48;100.00;100387.91;20891319;28;20041;-67
2022/11/07 07:26:34;;;;;;;7.07;2.50;;;;;;;10.67;100.00;100394.56;20891154;28;20130;-66
2022/11/07 07:36:35;;;;;;;6.72;2.55;;;;;;;10.87;100.00;100396.00;20888963;28;20041;-67
2022/11/07 07:46:37;;;;;;;9.55;2.55;;;;;;;10.95;100.00;100394.13;20886271;28;20483;-67
2022/11/07 07:56:38;;;;;;;6.28;2.30;;;;;;;10.97;100.00;100401.09;20840154;28;20538;-66
2022/11/07 08:06:39;;;;;;;8.05;2.13;;;;;;;11.13;100.00;100393.81;20839004;28;20547;-66
2022/11/07 08:16:41;;;;;;;6.63;1.90;;;;;;;11.26;100.00;100389.22;20846472;28;20544;-67
2022/11/07 08:26:43;;;;;;;5.82;2.20;;;;;;;11.53;100.00;100388.66;20840888;28;20072;-67
2022/11/07 08:36:44;;;;;;;5.88;2.00;;;;;;;11.65;100.00;100392.81;20839576;28;20041;-67
2022/11/07 08:46:45;;;;;;;6.15;2.00;;;;;;;11.82;100.00;100393.34;20885267;28;20118;-69
2022/11/07 08:56:47;;;;;;;9.40;2.20;;;;;;;12.27;100.00;100388.00;20885839;28;20076;-69
2022/11/07 09:06:48;;;;;;;11.25;2.10;;;;;;;12.63;100.00;100400.28;20884471;28;20068;-70
2022/11/07 09:16:49;;;;;;;10.18;2.33;;;;;;;12.92;100.00;100405.69;20885494;28;20482;-70
2022/11/07 09:26:51;;;;;;;8.00;1.60;;;;;;;12.89;100.00;100403.16;20885474;28;20045;-71
2022/11/07 09:36:52;;;;;;;13.25;2.38;;;;;;;13.15;100.00;100404.25;20890992;28;20188;-70
2022/11/07 09:46:54;;;;;;;8.57;2.35;;;;;;;13.32;100.00;100412.59;20882107;28;20107;-70
2022/11/07 09:56:56;;;;;;;7.32;1.65;;;;;;;13.28;100.00;100413.56;20894025;28;20460;-70
2022/11/07 10:06:58;;;;;;;9.48;2.00;;;;;;;13.16;100.00;100421.75;20896553;28;20517;-70
2022/11/07 10:16:59;;;;;;;5.57;1.73;;;;;;;13.20;100.00;100412.88;20896703;28;20077;-69
2022/11/07 10:27:00;;;;;;;5.78;1.92;;;;;;;13.52;100.00;100415.53;20895963;28;20056;-70
2022/11/07 10:37:02;;;;;;;7.38;1.40;;;;;;;13.39;100.00;100427.28;20893957;28;20073;-69
2022/11/07 10:47:04;;;;;;;12.40;2.65;;;;;;;13.58;100.00;100415.38;20893971;28;20071;-69
2022/11/07 10:57:06;;;;;;;6.90;2.15;;;;;;;13.85;100.00;100397.06;20892863;28;20041;-69
2022/11/07 11:07:07;;;;;;;5.32;1.60;;;;;;;13.93;100.00;100381.03;20891409;28;20103;-69
2022/11/07 11:17:08;;;;;;;7.70;1.80;;;;;;;13.90;100.00;100376.75;20891313;28;20123;-70
2022/11/07 11:27:10;;;;;;;9.98;2.03;;;;;;;14.22;100.00;100362.56;20889852;28;20045;-68
2022/11/07 11:37:12;;;;;;;4.90;1.50;;;;;;;14.33;100.00;100336.78;20889257;28;20049;-69
2022/11/07 11:47:13;;;;;;;9.52;2.20;;;;;;;14.70;100.00;100335.59;20889222;28;20052;-69
2022/11/07 11:57:14;;;;;;;8.50;1.88;;;;;;;14.77;100.00;100341.53;20886994;28;20484;-70
2022/11/07 12:07:16;;;;;;;10.13;2.30;;;;;;;14.97;100.00;100332.94;20887394;28;20181;-71
2022/11/07 12:17:17;;;;;;;7.18;1.90;;;;;;;14.99;100.00;100337.22;20887680;28;20048;-71
2022/11/07 12:27:19;;;;;;;9.75;2.13;;;;;;;15.10;100.00;100323.69;20887395;28;20071;-71
2022/11/07 12:37:26;;;;;;;7.22;1.73;;;;;;;15.16;100.00;100333.16;20884775;28;20582;-72
2022/11/07 12:47:28;;;;;;;5.68;1.80;;;;;;;14.97;100.00;100333.78;20886290;28;20049;-72
2022/11/07 12:57:29;;;;;;;7.95;1.92;;;;;;;14.88;100.00;100320.91;20885721;28;20076;-73
2022/11/07 13:07:31;;;;;;;9.18;1.70;;;;;;;14.72;100.00;100319.75;20886199;28;20421;-70
2022/11/07 13:17:32;;;;;;;8.88;2.00;;;;;;;14.66;100.00;100317.28;20900578;28;20049;-70
2022/11/07 13:27:33;;;;;;;6.35;1.85;;;;;;;14.52;100.00;100329.19;20900531;28;20056;-70
2022/11/07 13:37:35;;;;;;;6.35;1.98;;;;;;;14.46;100.00;100320.56;20893903;28;20497;-73
2022/11/07 13:47:36;;;;;;;4.00;1.40;;;;;;;14.40;100.00;100321.63;20891157;28;20045;-71
2022/11/07 13:57:37;;;;;;;6.47;1.67;;;;;;;14.46;100.00;100326.69;20898553;28;20083;-73
2022/11/07 14:07:39;;;;;;;8.18;2.08;;;;;;;14.34;100.00;100330.59;20890240;28;20361;-72
2022/11/07 14:17:40;;;;;;;18.10;11.98;;;;;;;14.42;100.00;100330.38;20896987;28;20045;-72
2022/11/07 14:27:41;;;;;;;9.40;1.98;;;;;;;14.35;100.00;100326.19;20894719;28;20033;-72
2022/11/07 14:37:43;;;;;;;8.27;2.28;;;;;;;14.29;100.00;100334.28;20887460;28;20077;-72
2022/11/07 14:47:44;;;;;;;6.47;2.03;;;;;;;14.31;100.00;100333.31;20886187;28;20080;-71
2022/11/07 14:57:46;;;;;;;6.40;1.92;;;;;;;14.30;100.00;100341.28;20883146;28;20107;-71
2022/11/07 15:07:47;;;;;;;5.45;1.85;;;;;;;14.08;100.00;100328.81;20889922;28;20477;-70
2022/11/07 15:17:48;;;;;;;10.07;2.38;;;;;;;13.96;100.00;100326.53;20879624;28;20094;-74
2022/11/07 15:27:50;;;;;;;9.10;2.78;;;;;;;13.87;100.00;100326.81;20883488;28;20048;-76
2022/11/07 15:37:51;;;;;;;8.27;2.30;;;;;;;13.81;100.00;100327.00;20881746;28;20049;-76
2022/11/07 15:47:53;;;;;;;8.80;4.40;;;;;;;13.73;100.00;100334.25;20884656;28;20409;-76
2022/11/07 15:57:55;;;;;;;9.15;3.00;;;;;;;13.78;100.00;100335.00;20882776;28;20413;-76
2022/11/07 16:07:57;;;;;;;8.48;2.10;;;;;;;13.54;100.00;100332.16;20883186;28;20078;-76
2022/11/07 16:17:59;;;;;;;6.25;2.10;;;;;;;13.29;100.00;100342.53;20884714;28;20041;-76
2022/11/07 16:28:02;;;;;;;9.80;2.78;;;;;;;13.13;100.00;100337.69;20880774;28;20037;-76
2022/11/07 16:38:03;;;;;;;13.13;3.67;;;;;;;12.99;100.00;100331.06;20877608;28;20107;-75
2022/11/07 16:48:05;;;;;;;9.13;3.53;;;;;;;13.03;100.00;100345.84;20891979;28;20115;-76
2022/11/07 16:58:06;;;;;;;8.60;3.45;;;;;;;13.03;100.00;100334.44;20889683;28;20095;-72
2022/11/07 17:08:08;;;;;;;5.95;2.63;;;;;;;12.96;100.00;100346.91;20858148;28;20053;-74
2022/11/07 17:18:09;;;;;;;7.55;3.25;;;;;;;12.81;100.00;100344.66;20893267;28;20086;-72
2022/11/07 17:28:10;;;;;;;16.83;6.63;;;;;;;12.72;100.00;100350.16;20893572;28;20045;-72
2022/11/07 17:38:12;;;;;;;14.23;6.40;;;;;;;12.64;100.00;100360.00;20889088;28;20045;-74
2022/11/07 17:48:14;;;;;;;15.50;6.45;;;;;;;12.58;100.00;100361.88;20887027;28;20056;-72
2022/11/07 17:58:16;;;;;;;18.25;11.13;;;;;;;12.49;100.00;100358.59;20888261;28;20065;-72
2022/11/07 18:08:18;;;;;;;20.17;10.82;;;;;;;12.48;100.00;100363.00;20887312;28;20041;-72
2022/11/07 18:18:39;;;;;;;33.70;22.23;;;;;;;12.37;100.00;100351.91;20884225;28;20033;-72
2022/11/07 18:28:41;;;;;;;28.02;18.15;;;;;;;12.22;100.00;100350.50;20889353;28;20045;-70
2022/11/07 18:38:43;;;;;;;31.35;19.35;;;;;;;12.11;100.00;100349.00;20888102;28;20052;-70
2022/11/07 18:48:45;;;;;;;21.38;14.63;;;;;;;11.82;100.00;100347.88;20889029;28;20052;-70
2022/11/07 18:58:46;;;;;;;25.23;13.02;;;;;;;11.55;100.00;100344.94;20882005;28;20082;-70
2022/11/07 19:08:47;;;;;;;21.42;12.63;;;;;;;11.38;100.00;100346.16;20880844;28;20103;-72
2022/11/07 19:18:49;;;;;;;21.92;11.43;;;;;;;11.01;100.00;100357.34;20879934;28;20049;-72
2022/11/07 19:28:52;;;;;;;25.30;12.57;;;;;;;10.74;100.00;100353.47;20878388;28;20041;-72
2022/11/07 19:38:54;;;;;;;22.00;9.45;;;;;;;10.62;100.00;100364.13;20882461;28;20052;-73
2022/11/07 19:48:56;;;;;;;25.15;13.18;;;;;;;10.47;100.00;100363.50;20878146;28;20045;-72
2022/11/07 19:58:57;;;;;;;21.08;11.60;;;;;;;10.30;100.00;100368.13;20883619;28;20098;-73
2022/11/07 20:08:58;;;;;;;22.50;11.35;;;;;;;10.41;100.00;100371.44;20880471;28;20143;-73
2022/11/07 20:19:00;;;;;;;16.85;8.80;;;;;;;10.55;100.00;100367.75;20872812;28;20489;-72
2022/11/07 20:29:01;;;;;;;17.50;8.40;;;;;;;10.68;100.00;100364.03;20878268;28;20072;-71
2022/11/07 20:39:02;;;;;;;16.48;8.80;;;;;;;10.78;100.00;100356.00;20878890;28;20045;-72
2022/11/07 20:49:04;;;;;;;17.60;8.10;;;;;;;10.93;100.00;100367.97;20879717;28;20053;-71
2022/11/07 20:59:05;;;;;;;16.10;8.70;;;;;;;11.08;100.00;100364.22;20881021;28;20115;-71
2022/11/07 21:09:07;;;;;;;15.38;9.40;;;;;;;11.15;100.00;100364.94;20879599;28;20041;-71
2022/11/07 21:19:08;;;;;;;10.75;6.05;;;;;;;11.12;100.00;100344.06;20877977;28;20087;-72
2022/11/07 21:29:10;;;;;;;12.65;5.68;;;;;;;10.91;100.00;100338.28;20872958;28;20069;-74
2022/11/07 21:39:13;;;;;;;10.57;5.10;;;;;;;10.73;100.00;100328.16;20888502;28;20365;-74
2022/11/07 21:49:14;;;;;;;10.77;4.80;;;;;;;10.59;100.00;100331.03;20892957;28;20476;-73
2022/11/07 21:59:17;;;;;;;9.27;4.20;;;;;;;10.48;100.00;100320.72;20896520;28;20056;-74
2022/11/07 22:09:19;;;;;;;10.25;4.63;;;;;;;10.45;100.00;100305.06;20894702;28;20056;-70
2022/11/07 22:19:21;;;;;;;13.93;4.75;;;;;;;10.45;100.00;100305.06;20891109;28;20539;-70
2022/11/07 22:29:22;;;;;;;10.63;4.90;;;;;;;10.29;100.00;100300.97;20894631;28;20103;-73
2022/11/07 22:39:24;;;;;;;12.25;5.40;;;;;;;9.94;100.00;100291.88;20892698;28;20057;-72
2022/11/07 22:49:25;;;;;;;13.20;6.15;;;;;;;9.61;100.00;100292.34;20894155;28;20072;-71
2022/11/07 22:59:26;;;;;;;17.70;6.07;;;;;;;9.38;100.00;100285.69;20891426;28;20117;-71
2022/11/07 23:09:28;;;;;;;12.73;6.03;;;;;;;9.16;100.00;100272.03;20893789;28;20041;-72
2022/11/07 23:19:29;;;;;;;22.55;8.45;;;;;;;9.00;100.00;100275.69;20894092;28;20489;-71
2022/11/07 23:29:30;;;;;;;12.48;5.10;;;;;;;8.91;100.00;100279.28;20892799;28;20456;-72
2022/11/07 23:39:32;;;;;;;12.57;5.40;;;;;;;8.66;100.00;100277.78;20892088;28;20052;-72
